sensor_id;sensor_type;location;lat;lon;timestamp;P1;durP1;ratioP1;P2;durP2;ratioP2
13693;SDS011;6919;52.344;14.518;2024-01-07T00:02:07;7.97;;;3.10;;
13693;SDS011;6919;52.344;14.518;2024-01-07T00:04:36;7.50;;;2.30;;
13693;SDS011;6919;52.344;14.518;2024-01-07T00:07:04;6.27;;;3.43;;
13693;SDS011;6919;52.344;14.518;2024-01-07T00:09:34;6.70;;;2.90;;
13693;SDS011;6919;52.344;14.518;2024-01-07T00:12:03;4.47;;;3.00;;
13693;SDS011;6919;52.344;14.518;2024-01-07T00:14:32;8.53;;;3.50;;
13693;SDS011;6919;52.344;14.518;2024-01-07T00:17:01;8.50;;;3.53;;
13693;SDS011;6919;52.344;14.518;2024-01-07T00:19:29;4.93;;;3.10;;
13693;SDS011;6919;52.344;14.518;2024-01-07T00:21:58;6.00;;;3.67;;
13693;SDS011;6919;52.344;14.518;2024-01-07T00:24:27;4.87;;;3.10;;
13693;SDS011;6919;52.344;14.518;2024-01-07T00:26:57;4.10;;;2.63;;
13693;SDS011;6919;52.344;14.518;2024-01-07T00:29:25;8.27;;;2.57;;
13693;SDS011;6919;52.344;14.518;2024-01-07T00:31:54;5.10;;;2.77;;
13693;SDS011;6919;52.344;14.518;2024-01-07T00:34:22;5.93;;;3.17;;
13693;SDS011;6919;52.344;14.518;2024-01-07T00:36:51;4.23;;;3.00;;
13693;SDS011;6919;52.344;14.518;2024-01-07T00:39:20;9.03;;;3.07;;
13693;SDS011;6919;52.344;14.518;2024-01-07T00:41:49;6.53;;;3.17;;
13693;SDS011;6919;52.344;14.518;2024-01-07T00:44:19;7.27;;;3.10;;
13693;SDS011;6919;52.344;14.518;2024-01-07T00:46:48;6.00;;;3.27;;
13693;SDS011;6919;52.344;14.518;2024-01-07T00:49:16;5.37;;;3.03;;
13693;SDS011;6919;52.344;14.518;2024-01-07T00:51:45;5.57;;;2.77;;
13693;SDS011;6919;52.344;14.518;2024-01-07T00:54:14;5.90;;;2.70;;
13693;SDS011;6919;52.344;14.518;2024-01-07T00:56:42;5.40;;;2.93;;
13693;SDS011;6919;52.344;14.518;2024-01-07T00:59:12;5.50;;;3.07;;
13693;SDS011;6919;52.344;14.518;2024-01-07T01:01:42;4.63;;;2.93;;
13693;SDS011;6919;52.344;14.518;2024-01-07T01:04:11;4.37;;;2.47;;
13693;SDS011;6919;52.344;14.518;2024-01-07T01:06:39;4.37;;;2.53;;
13693;SDS011;6919;52.344;14.518;2024-01-07T01:09:08;4.77;;;2.87;;
13693;SDS011;6919;52.344;14.518;2024-01-07T01:11:37;5.40;;;3.17;;
13693;SDS011;6919;52.344;14.518;2024-01-07T01:14:05;4.67;;;3.03;;
13693;SDS011;6919;52.344;14.518;2024-01-07T01:16:34;8.10;;;3.47;;
13693;SDS011;6919;52.344;14.518;2024-01-07T01:19:04;6.60;;;2.83;;
13693;SDS011;6919;52.344;14.518;2024-01-07T01:21:33;4.20;;;2.73;;
13693;SDS011;6919;52.344;14.518;2024-01-07T01:24:01;5.17;;;2.50;;
13693;SDS011;6919;52.344;14.518;2024-01-07T01:26:30;6.90;;;2.90;;
13693;SDS011;6919;52.344;14.518;2024-01-07T01:28:59;5.70;;;3.27;;
13693;SDS011;6919;52.344;14.518;2024-01-07T01:31:27;3.60;;;2.50;;
13693;SDS011;6919;52.344;14.518;2024-01-07T01:33:56;7.97;;;3.20;;
13693;SDS011;6919;52.344;14.518;2024-01-07T01:36:26;3.87;;;2.77;;
13693;SDS011;6919;52.344;14.518;2024-01-07T01:38:55;6.10;;;2.60;;
13693;SDS011;6919;52.344;14.518;2024-01-07T01:41:23;4.53;;;2.37;;
13693;SDS011;6919;52.344;14.518;2024-01-07T01:43:55;5.23;;;2.93;;
13693;SDS011;6919;52.344;14.518;2024-01-07T01:46:25;4.63;;;2.97;;
13693;SDS011;6919;52.344;14.518;2024-01-07T01:48:55;5.87;;;3.13;;
13693;SDS011;6919;52.344;14.518;2024-01-07T01:51:27;7.17;;;3.30;;
13693;SDS011;6919;52.344;14.518;2024-01-07T01:53:58;3.70;;;2.60;;
13693;SDS011;6919;52.344;14.518;2024-01-07T01:56:29;4.17;;;2.93;;
13693;SDS011;6919;52.344;14.518;2024-01-07T01:58:59;5.83;;;3.20;;
13693;SDS011;6919;52.344;14.518;2024-01-07T02:01:28;7.50;;;3.23;;
13693;SDS011;6919;52.344;14.518;2024-01-07T02:03:58;6.47;;;2.90;;
13693;SDS011;6919;52.344;14.518;2024-01-07T02:06:28;6.47;;;3.60;;
13693;SDS011;6919;52.344;14.518;2024-01-07T02:08:57;6.03;;;3.10;;
13693;SDS011;6919;52.344;14.518;2024-01-07T02:11:26;6.03;;;3.33;;
13693;SDS011;6919;52.344;14.518;2024-01-07T02:13:55;5.43;;;2.93;;
13693;SDS011;6919;52.344;14.518;2024-01-07T02:16:24;7.53;;;3.70;;
13693;SDS011;6919;52.344;14.518;2024-01-07T02:18:53;5.23;;;2.80;;
13693;SDS011;6919;52.344;14.518;2024-01-07T02:21:22;5.40;;;3.43;;
13693;SDS011;6919;52.344;14.518;2024-01-07T02:23:53;5.30;;;3.10;;
13693;SDS011;6919;52.344;14.518;2024-01-07T02:26:23;3.47;;;2.50;;
13693;SDS011;6919;52.344;14.518;2024-01-07T02:28:55;6.17;;;2.87;;
13693;SDS011;6919;52.344;14.518;2024-01-07T02:31:23;6.30;;;3.20;;
13693;SDS011;6919;52.344;14.518;2024-01-07T02:33:52;6.17;;;3.57;;
13693;SDS011;6919;52.344;14.518;2024-01-07T02:36:21;4.67;;;3.13;;
13693;SDS011;6919;52.344;14.518;2024-01-07T02:38:49;6.43;;;3.20;;
13693;SDS011;6919;52.344;14.518;2024-01-07T02:41:18;3.73;;;2.80;;
13693;SDS011;6919;52.344;14.518;2024-01-07T02:43:53;5.40;;;3.33;;
13693;SDS011;6919;52.344;14.518;2024-01-07T02:46:23;4.63;;;2.73;;
13693;SDS011;6919;52.344;14.518;2024-01-07T02:48:52;3.80;;;2.63;;
13693;SDS011;6919;52.344;14.518;2024-01-07T02:51:21;5.53;;;2.63;;
13693;SDS011;6919;52.344;14.518;2024-01-07T02:53:50;5.07;;;3.23;;
13693;SDS011;6919;52.344;14.518;2024-01-07T02:56:18;5.30;;;2.63;;
13693;SDS011;6919;52.344;14.518;2024-01-07T02:58:49;3.63;;;2.47;;
13693;SDS011;6919;52.344;14.518;2024-01-07T03:01:21;3.73;;;2.47;;
13693;SDS011;6919;52.344;14.518;2024-01-07T03:03:50;4.07;;;2.80;;
13693;SDS011;6919;52.344;14.518;2024-01-07T03:06:18;3.87;;;2.60;;
13693;SDS011;6919;52.344;14.518;2024-01-07T03:08:47;5.23;;;2.80;;
13693;SDS011;6919;52.344;14.518;2024-01-07T03:11:16;3.33;;;2.30;;
13693;SDS011;6919;52.344;14.518;2024-01-07T03:13:44;3.87;;;2.33;;
13693;SDS011;6919;52.344;14.518;2024-01-07T03:16:20;4.00;;;2.73;;
13693;SDS011;6919;52.344;14.518;2024-01-07T03:18:48;4.63;;;2.70;;
13693;SDS011;6919;52.344;14.518;2024-01-07T03:21:18;4.43;;;2.63;;
13693;SDS011;6919;52.344;14.518;2024-01-07T03:23:47;4.50;;;2.70;;
13693;SDS011;6919;52.344;14.518;2024-01-07T03:26:17;4.87;;;3.07;;
13693;SDS011;6919;52.344;14.518;2024-01-07T03:28:46;5.23;;;2.97;;
13693;SDS011;6919;52.344;14.518;2024-01-07T03:31:15;8.93;;;3.00;;
13693;SDS011;6919;52.344;14.518;2024-01-07T03:33:47;5.63;;;2.97;;
13693;SDS011;6919;52.344;14.518;2024-01-07T03:36:16;5.07;;;3.13;;
13693;SDS011;6919;52.344;14.518;2024-01-07T03:38:44;4.87;;;3.00;;
13693;SDS011;6919;52.344;14.518;2024-01-07T03:41:15;4.67;;;3.07;;
13693;SDS011;6919;52.344;14.518;2024-01-07T03:43:45;4.83;;;3.30;;
13693;SDS011;6919;52.344;14.518;2024-01-07T03:46:15;7.20;;;3.07;;
13693;SDS011;6919;52.344;14.518;2024-01-07T03:48:44;4.53;;;2.90;;
13693;SDS011;6919;52.344;14.518;2024-01-07T03:51:14;4.27;;;2.47;;
13693;SDS011;6919;52.344;14.518;2024-01-07T03:53:43;6.40;;;3.17;;
13693;SDS011;6919;52.344;14.518;2024-01-07T03:56:11;4.93;;;3.20;;
13693;SDS011;6919;52.344;14.518;2024-01-07T03:58:40;3.87;;;2.13;;
13693;SDS011;6919;52.344;14.518;2024-01-07T04:01:08;4.63;;;2.67;;
13693;SDS011;6919;52.344;14.518;2024-01-07T04:03:37;5.83;;;2.70;;
13693;SDS011;6919;52.344;14.518;2024-01-07T04:06:07;4.53;;;2.23;;
13693;SDS011;6919;52.344;14.518;2024-01-07T04:08:36;3.63;;;2.53;;
13693;SDS011;6919;52.344;14.518;2024-01-07T04:11:05;4.53;;;2.67;;
13693;SDS011;6919;52.344;14.518;2024-01-07T04:13:33;3.67;;;2.30;;
13693;SDS011;6919;52.344;14.518;2024-01-07T04:16:02;4.30;;;2.37;;
13693;SDS011;6919;52.344;14.518;2024-01-07T04:18:31;3.90;;;2.53;;
13693;SDS011;6919;52.344;14.518;2024-01-07T04:21:00;3.77;;;2.60;;
13693;SDS011;6919;52.344;14.518;2024-01-07T04:23:30;3.57;;;2.37;;
13693;SDS011;6919;52.344;14.518;2024-01-07T04:25:58;3.87;;;2.40;;
13693;SDS011;6919;52.344;14.518;2024-01-07T04:28:27;3.40;;;2.20;;
13693;SDS011;6919;52.344;14.518;2024-01-07T04:30:56;4.33;;;2.63;;
13693;SDS011;6919;52.344;14.518;2024-01-07T04:33:24;3.27;;;2.27;;
13693;SDS011;6919;52.344;14.518;2024-01-07T04:35:53;6.77;;;2.00;;
13693;SDS011;6919;52.344;14.518;2024-01-07T04:38:24;3.13;;;2.43;;
13693;SDS011;6919;52.344;14.518;2024-01-07T04:40:54;6.93;;;2.50;;
13693;SDS011;6919;52.344;14.518;2024-01-07T04:43:23;3.67;;;2.50;;
13693;SDS011;6919;52.344;14.518;2024-01-07T04:45:52;4.10;;;2.43;;
13693;SDS011;6919;52.344;14.518;2024-01-07T04:48:20;3.33;;;2.03;;
13693;SDS011;6919;52.344;14.518;2024-01-07T04:50:49;4.87;;;2.53;;
13693;SDS011;6919;52.344;14.518;2024-01-07T04:53:17;2.87;;;2.00;;
13693;SDS011;6919;52.344;14.518;2024-01-07T04:55:46;3.47;;;2.30;;
13693;SDS011;6919;52.344;14.518;2024-01-07T04:58:16;3.93;;;2.03;;
13693;SDS011;6919;52.344;14.518;2024-01-07T05:00:45;4.73;;;2.00;;
13693;SDS011;6919;52.344;14.518;2024-01-07T05:03:14;3.33;;;1.70;;
13693;SDS011;6919;52.344;14.518;2024-01-07T05:05:42;3.30;;;2.00;;
13693;SDS011;6919;52.344;14.518;2024-01-07T05:08:11;3.93;;;2.27;;
13693;SDS011;6919;52.344;14.518;2024-01-07T05:10:39;2.93;;;1.60;;
13693;SDS011;6919;52.344;14.518;2024-01-07T05:13:08;3.83;;;2.30;;
13693;SDS011;6919;52.344;14.518;2024-01-07T05:15:38;5.17;;;1.83;;
13693;SDS011;6919;52.344;14.518;2024-01-07T05:18:07;3.17;;;1.90;;
13693;SDS011;6919;52.344;14.518;2024-01-07T05:20:37;2.80;;;2.10;;
13693;SDS011;6919;52.344;14.518;2024-01-07T05:23:05;2.13;;;1.93;;
13693;SDS011;6919;52.344;14.518;2024-01-07T05:25:34;3.57;;;2.37;;
13693;SDS011;6919;52.344;14.518;2024-01-07T05:28:03;4.10;;;2.43;;
13693;SDS011;6919;52.344;14.518;2024-01-07T05:30:32;4.63;;;2.50;;
13693;SDS011;6919;52.344;14.518;2024-01-07T05:33:02;2.33;;;1.57;;
13693;SDS011;6919;52.344;14.518;2024-01-07T05:35:31;3.07;;;1.83;;
13693;SDS011;6919;52.344;14.518;2024-01-07T05:38:00;2.40;;;1.70;;
13693;SDS011;6919;52.344;14.518;2024-01-07T05:40:29;3.07;;;2.00;;
13693;SDS011;6919;52.344;14.518;2024-01-07T05:42:57;2.57;;;1.73;;
13693;SDS011;6919;52.344;14.518;2024-01-07T05:45:26;4.50;;;2.20;;
13693;SDS011;6919;52.344;14.518;2024-01-07T05:47:54;3.60;;;1.70;;
13693;SDS011;6919;52.344;14.518;2024-01-07T05:50:25;1.73;;;1.60;;
13693;SDS011;6919;52.344;14.518;2024-01-07T05:52:53;2.30;;;1.90;;
13693;SDS011;6919;52.344;14.518;2024-01-07T05:55:22;2.97;;;1.70;;
13693;SDS011;6919;52.344;14.518;2024-01-07T05:57:51;2.43;;;1.50;;
13693;SDS011;6919;52.344;14.518;2024-01-07T06:00:19;2.37;;;1.67;;
13693;SDS011;6919;52.344;14.518;2024-01-07T06:02:49;3.80;;;2.13;;
13693;SDS011;6919;52.344;14.518;2024-01-07T06:05:18;3.30;;;1.93;;
13693;SDS011;6919;52.344;14.518;2024-01-07T06:07:48;2.70;;;1.90;;
13693;SDS011;6919;52.344;14.518;2024-01-07T06:10:17;1.73;;;1.43;;
13693;SDS011;6919;52.344;14.518;2024-01-07T06:12:45;5.60;;;2.00;;
13693;SDS011;6919;52.344;14.518;2024-01-07T06:15:14;3.57;;;2.10;;
13693;SDS011;6919;52.344;14.518;2024-01-07T06:17:43;2.53;;;1.90;;
13693;SDS011;6919;52.344;14.518;2024-01-07T06:20:13;1.70;;;1.47;;
13693;SDS011;6919;52.344;14.518;2024-01-07T06:22:42;3.33;;;1.77;;
13693;SDS011;6919;52.344;14.518;2024-01-07T06:25:12;2.97;;;1.90;;
13693;SDS011;6919;52.344;14.518;2024-01-07T06:27:40;3.67;;;2.00;;
13693;SDS011;6919;52.344;14.518;2024-01-07T06:30:09;1.77;;;1.37;;
13693;SDS011;6919;52.344;14.518;2024-01-07T06:32:39;2.10;;;1.60;;
13693;SDS011;6919;52.344;14.518;2024-01-07T06:35:07;1.97;;;1.70;;
13693;SDS011;6919;52.344;14.518;2024-01-07T06:37:36;1.97;;;1.57;;
13693;SDS011;6919;52.344;14.518;2024-01-07T06:40:05;3.40;;;1.73;;
13693;SDS011;6919;52.344;14.518;2024-01-07T06:42:36;1.87;;;1.60;;
13693;SDS011;6919;52.344;14.518;2024-01-07T06:45:05;2.67;;;2.03;;
13693;SDS011;6919;52.344;14.518;2024-01-07T06:47:34;4.17;;;1.70;;
13693;SDS011;6919;52.344;14.518;2024-01-07T06:50:03;3.10;;;1.73;;
13693;SDS011;6919;52.344;14.518;2024-01-07T06:52:32;4.50;;;1.77;;
13693;SDS011;6919;52.344;14.518;2024-01-07T06:55:01;2.83;;;1.73;;
13693;SDS011;6919;52.344;14.518;2024-01-07T06:57:30;3.10;;;1.97;;
13693;SDS011;6919;52.344;14.518;2024-01-07T07:00:00;2.00;;;1.70;;
13693;SDS011;6919;52.344;14.518;2024-01-07T07:02:29;3.67;;;1.73;;
13693;SDS011;6919;52.344;14.518;2024-01-07T07:04:57;1.73;;;1.63;;
13693;SDS011;6919;52.344;14.518;2024-01-07T07:07:26;2.03;;;1.70;;
13693;SDS011;6919;52.344;14.518;2024-01-07T07:09:54;2.30;;;1.70;;
13693;SDS011;6919;52.344;14.518;2024-01-07T07:12:23;3.50;;;2.00;;
13693;SDS011;6919;52.344;14.518;2024-01-07T07:14:52;3.00;;;2.00;;
13693;SDS011;6919;52.344;14.518;2024-01-07T07:17:22;2.50;;;1.70;;
13693;SDS011;6919;52.344;14.518;2024-01-07T07:19:50;2.47;;;1.90;;
13693;SDS011;6919;52.344;14.518;2024-01-07T07:22:19;5.17;;;1.80;;
13693;SDS011;6919;52.344;14.518;2024-01-07T07:24:48;6.03;;;2.53;;
13693;SDS011;6919;52.344;14.518;2024-01-07T07:27:17;2.70;;;1.77;;
13693;SDS011;6919;52.344;14.518;2024-01-07T07:29:45;2.27;;;1.97;;
13693;SDS011;6919;52.344;14.518;2024-01-07T07:32:14;4.33;;;2.63;;
13693;SDS011;6919;52.344;14.518;2024-01-07T07:34:44;3.13;;;1.90;;
13693;SDS011;6919;52.344;14.518;2024-01-07T07:37:13;4.50;;;2.30;;
13693;SDS011;6919;52.344;14.518;2024-01-07T07:39:46;4.30;;;2.33;;
13693;SDS011;6919;52.344;14.518;2024-01-07T07:42:15;3.00;;;2.00;;
13693;SDS011;6919;52.344;14.518;2024-01-07T07:44:44;2.67;;;1.93;;
13693;SDS011;6919;52.344;14.518;2024-01-07T07:47:14;3.37;;;2.40;;
13693;SDS011;6919;52.344;14.518;2024-01-07T07:49:42;2.37;;;2.00;;
13693;SDS011;6919;52.344;14.518;2024-01-07T07:52:12;4.33;;;1.97;;
13693;SDS011;6919;52.344;14.518;2024-01-07T07:54:40;4.47;;;2.17;;
13693;SDS011;6919;52.344;14.518;2024-01-07T07:57:09;2.30;;;1.97;;
13693;SDS011;6919;52.344;14.518;2024-01-07T07:59:37;2.80;;;2.20;;
13693;SDS011;6919;52.344;14.518;2024-01-07T08:02:06;2.83;;;2.07;;
13693;SDS011;6919;52.344;14.518;2024-01-07T08:04:35;3.20;;;2.03;;
13693;SDS011;6919;52.344;14.518;2024-01-07T08:07:05;2.93;;;2.10;;
13693;SDS011;6919;52.344;14.518;2024-01-07T08:09:34;3.20;;;2.40;;
13693;SDS011;6919;52.344;14.518;2024-01-07T08:12:03;2.53;;;2.20;;
13693;SDS011;6919;52.344;14.518;2024-01-07T08:14:32;3.23;;;2.10;;
13693;SDS011;6919;52.344;14.518;2024-01-07T08:17:02;5.40;;;2.83;;
13693;SDS011;6919;52.344;14.518;2024-01-07T08:19:31;3.97;;;2.30;;
13693;SDS011;6919;52.344;14.518;2024-01-07T08:22:00;3.53;;;2.63;;
13693;SDS011;6919;52.344;14.518;2024-01-07T08:24:30;6.47;;;2.23;;
13693;SDS011;6919;52.344;14.518;2024-01-07T08:26:58;3.40;;;2.60;;
13693;SDS011;6919;52.344;14.518;2024-01-07T08:29:27;3.40;;;2.20;;
13693;SDS011;6919;52.344;14.518;2024-01-07T08:31:56;3.30;;;2.30;;
13693;SDS011;6919;52.344;14.518;2024-01-07T08:34:25;4.70;;;3.13;;
13693;SDS011;6919;52.344;14.518;2024-01-07T08:36:54;6.87;;;3.03;;
13693;SDS011;6919;52.344;14.518;2024-01-07T08:39:22;4.93;;;2.93;;
13693;SDS011;6919;52.344;14.518;2024-01-07T08:41:53;3.90;;;2.73;;
13693;SDS011;6919;52.344;14.518;2024-01-07T08:44:22;4.30;;;2.95;;
13693;SDS011;6919;52.344;14.518;2024-01-07T08:46:51;4.53;;;3.20;;
13693;SDS011;6919;52.344;14.518;2024-01-07T08:49:19;3.90;;;2.60;;
13693;SDS011;6919;52.344;14.518;2024-01-07T08:51:48;4.00;;;2.70;;
13693;SDS011;6919;52.344;14.518;2024-01-07T08:54:17;2.73;;;2.17;;
13693;SDS011;6919;52.344;14.518;2024-01-07T08:56:45;4.97;;;3.00;;
13693;SDS011;6919;52.344;14.518;2024-01-07T08:59:15;4.03;;;2.47;;
13693;SDS011;6919;52.344;14.518;2024-01-07T09:01:44;3.83;;;2.53;;
13693;SDS011;6919;52.344;14.518;2024-01-07T09:04:13;5.43;;;2.73;;
13693;SDS011;6919;52.344;14.518;2024-01-07T09:06:43;4.63;;;3.07;;
13693;SDS011;6919;52.344;14.518;2024-01-07T09:09:11;3.53;;;2.37;;
13693;SDS011;6919;52.344;14.518;2024-01-07T09:11:40;3.37;;;2.67;;
13693;SDS011;6919;52.344;14.518;2024-01-07T09:14:09;3.37;;;2.53;;
13693;SDS011;6919;52.344;14.518;2024-01-07T09:16:38;5.20;;;2.80;;
13693;SDS011;6919;52.344;14.518;2024-01-07T09:19:08;3.23;;;2.63;;
13693;SDS011;6919;52.344;14.518;2024-01-07T09:21:40;4.53;;;2.80;;
13693;SDS011;6919;52.344;14.518;2024-01-07T09:24:10;4.77;;;3.00;;
13693;SDS011;6919;52.344;14.518;2024-01-07T09:26:39;3.87;;;2.77;;
13693;SDS011;6919;52.344;14.518;2024-01-07T09:29:07;5.67;;;3.00;;
13693;SDS011;6919;52.344;14.518;2024-01-07T09:31:36;3.73;;;2.50;;
13693;SDS011;6919;52.344;14.518;2024-01-07T09:34:07;5.23;;;3.17;;
13693;SDS011;6919;52.344;14.518;2024-01-07T09:36:35;4.90;;;2.77;;
13693;SDS011;6919;52.344;14.518;2024-01-07T09:39:04;8.10;;;4.47;;
13693;SDS011;6919;52.344;14.518;2024-01-07T09:41:32;8.63;;;5.30;;
13693;SDS011;6919;52.344;14.518;2024-01-07T09:44:01;4.90;;;3.20;;
13693;SDS011;6919;52.344;14.518;2024-01-07T09:46:30;3.60;;;2.90;;
13693;SDS011;6919;52.344;14.518;2024-01-07T09:49:03;4.93;;;2.60;;
13693;SDS011;6919;52.344;14.518;2024-01-07T09:51:32;3.97;;;2.67;;
13693;SDS011;6919;52.344;14.518;2024-01-07T09:54:04;7.93;;;2.07;;
13693;SDS011;6919;52.344;14.518;2024-01-07T09:56:42;5.00;;;2.53;;
13693;SDS011;6919;52.344;14.518;2024-01-07T09:59:17;4.50;;;2.97;;
13693;SDS011;6919;52.344;14.518;2024-01-07T10:01:46;4.30;;;2.73;;
13693;SDS011;6919;52.344;14.518;2024-01-07T10:04:21;4.13;;;2.50;;
13693;SDS011;6919;52.344;14.518;2024-01-07T10:06:50;3.20;;;2.70;;
13693;SDS011;6919;52.344;14.518;2024-01-07T10:09:21;5.33;;;2.20;;
13693;SDS011;6919;52.344;14.518;2024-01-07T10:11:52;4.33;;;2.90;;
13693;SDS011;6919;52.344;14.518;2024-01-07T10:14:21;3.57;;;2.53;;
13693;SDS011;6919;52.344;14.518;2024-01-07T10:16:51;6.40;;;2.80;;
13693;SDS011;6919;52.344;14.518;2024-01-07T10:19:21;4.20;;;2.70;;
13693;SDS011;6919;52.344;14.518;2024-01-07T10:22:01;5.67;;;3.63;;
13693;SDS011;6919;52.344;14.518;2024-01-07T10:24:35;3.60;;;2.67;;
13693;SDS011;6919;52.344;14.518;2024-01-07T10:27:05;3.90;;;3.00;;
13693;SDS011;6919;52.344;14.518;2024-01-07T10:29:36;4.63;;;2.90;;
13693;SDS011;6919;52.344;14.518;2024-01-07T10:32:05;4.17;;;2.93;;
13693;SDS011;6919;52.344;14.518;2024-01-07T10:34:35;6.67;;;3.60;;
13693;SDS011;6919;52.344;14.518;2024-01-07T10:37:04;4.57;;;3.43;;
13693;SDS011;6919;52.344;14.518;2024-01-07T10:39:33;6.30;;;3.87;;
13693;SDS011;6919;52.344;14.518;2024-01-07T10:42:03;5.13;;;2.67;;
13693;SDS011;6919;52.344;14.518;2024-01-07T10:44:33;6.13;;;3.00;;
13693;SDS011;6919;52.344;14.518;2024-01-07T10:47:03;4.83;;;2.80;;
13693;SDS011;6919;52.344;14.518;2024-01-07T10:49:38;3.70;;;2.80;;
13693;SDS011;6919;52.344;14.518;2024-01-07T10:52:11;5.13;;;2.90;;
13693;SDS011;6919;52.344;14.518;2024-01-07T10:54:40;6.37;;;3.70;;
13693;SDS011;6919;52.344;14.518;2024-01-07T10:57:13;5.27;;;3.10;;
13693;SDS011;6919;52.344;14.518;2024-01-07T10:59:48;7.73;;;3.40;;
13693;SDS011;6919;52.344;14.518;2024-01-07T11:02:20;8.90;;;4.33;;
13693;SDS011;6919;52.344;14.518;2024-01-07T11:04:54;6.63;;;3.80;;
13693;SDS011;6919;52.344;14.518;2024-01-07T11:07:32;5.10;;;3.70;;
13693;SDS011;6919;52.344;14.518;2024-01-07T11:10:06;5.50;;;3.47;;
13693;SDS011;6919;52.344;14.518;2024-01-07T11:12:38;5.87;;;3.23;;
13693;SDS011;6919;52.344;14.518;2024-01-07T11:15:07;5.33;;;3.40;;
13693;SDS011;6919;52.344;14.518;2024-01-07T11:17:40;6.83;;;3.33;;
13693;SDS011;6919;52.344;14.518;2024-01-07T11:20:16;6.30;;;3.63;;
13693;SDS011;6919;52.344;14.518;2024-01-07T11:22:47;6.33;;;3.20;;
13693;SDS011;6919;52.344;14.518;2024-01-07T11:25:29;6.03;;;3.27;;
13693;SDS011;6919;52.344;14.518;2024-01-07T11:28:00;3.73;;;2.97;;
13693;SDS011;6919;52.344;14.518;2024-01-07T11:30:29;4.00;;;3.03;;
13693;SDS011;6919;52.344;14.518;2024-01-07T11:33:05;4.40;;;3.00;;
13693;SDS011;6919;52.344;14.518;2024-01-07T11:38:24;3.03;;;2.67;;
13693;SDS011;6919;52.344;14.518;2024-01-07T11:40:53;4.40;;;2.70;;
13693;SDS011;6919;52.344;14.518;2024-01-07T11:43:25;7.17;;;3.53;;
13693;SDS011;6919;52.344;14.518;2024-01-07T11:45:55;7.73;;;3.47;;
13693;SDS011;6919;52.344;14.518;2024-01-07T11:48:24;5.37;;;3.17;;
13693;SDS011;6919;52.344;14.518;2024-01-07T11:50:54;7.03;;;2.90;;
13693;SDS011;6919;52.344;14.518;2024-01-07T11:53:23;4.70;;;2.73;;
13693;SDS011;6919;52.344;14.518;2024-01-07T11:55:52;3.80;;;2.70;;
13693;SDS011;6919;52.344;14.518;2024-01-07T11:58:20;5.10;;;3.17;;
13693;SDS011;6919;52.344;14.518;2024-01-07T12:00:49;4.07;;;3.07;;
13693;SDS011;6919;52.344;14.518;2024-01-07T12:03:18;5.03;;;2.97;;
13693;SDS011;6919;52.344;14.518;2024-01-07T12:05:46;5.67;;;3.23;;
13693;SDS011;6919;52.344;14.518;2024-01-07T12:08:17;6.33;;;3.80;;
13693;SDS011;6919;52.344;14.518;2024-01-07T12:10:47;4.33;;;2.90;;
13693;SDS011;6919;52.344;14.518;2024-01-07T12:13:17;4.63;;;3.60;;
13693;SDS011;6919;52.344;14.518;2024-01-07T12:15:46;5.17;;;3.97;;
13693;SDS011;6919;52.344;14.518;2024-01-07T12:18:15;5.83;;;3.30;;
13693;SDS011;6919;52.344;14.518;2024-01-07T12:20:54;5.80;;;3.20;;
13693;SDS011;6919;52.344;14.518;2024-01-07T12:23:25;5.40;;;3.60;;
13693;SDS011;6919;52.344;14.518;2024-01-07T12:25:54;6.00;;;3.37;;
13693;SDS011;6919;52.344;14.518;2024-01-07T12:28:34;5.10;;;3.30;;
13693;SDS011;6919;52.344;14.518;2024-01-07T12:31:03;3.57;;;2.80;;
13693;SDS011;6919;52.344;14.518;2024-01-07T12:33:32;8.03;;;3.60;;
13693;SDS011;6919;52.344;14.518;2024-01-07T12:36:02;4.33;;;2.97;;
13693;SDS011;6919;52.344;14.518;2024-01-07T12:38:32;6.77;;;4.37;;
13693;SDS011;6919;52.344;14.518;2024-01-07T12:41:03;6.97;;;3.77;;
13693;SDS011;6919;52.344;14.518;2024-01-07T12:43:32;6.27;;;3.77;;
13693;SDS011;6919;52.344;14.518;2024-01-07T12:46:01;6.80;;;3.80;;
13693;SDS011;6919;52.344;14.518;2024-01-07T12:48:32;8.67;;;5.10;;
13693;SDS011;6919;52.344;14.518;2024-01-07T12:51:01;10.40;;;5.20;;
13693;SDS011;6919;52.344;14.518;2024-01-07T12:53:30;9.93;;;3.93;;
13693;SDS011;6919;52.344;14.518;2024-01-07T12:56:00;8.87;;;4.63;;
13693;SDS011;6919;52.344;14.518;2024-01-07T12:58:29;7.10;;;4.33;;
13693;SDS011;6919;52.344;14.518;2024-01-07T13:00:59;5.77;;;4.07;;
13693;SDS011;6919;52.344;14.518;2024-01-07T13:03:28;5.10;;;3.73;;
13693;SDS011;6919;52.344;14.518;2024-01-07T13:05:57;6.43;;;3.83;;
13693;SDS011;6919;52.344;14.518;2024-01-07T13:08:25;5.73;;;3.33;;
13693;SDS011;6919;52.344;14.518;2024-01-07T13:10:55;6.20;;;3.43;;
13693;SDS011;6919;52.344;14.518;2024-01-07T13:13:25;5.50;;;3.67;;
13693;SDS011;6919;52.344;14.518;2024-01-07T13:15:54;5.43;;;3.33;;
13693;SDS011;6919;52.344;14.518;2024-01-07T13:18:23;5.77;;;3.63;;
13693;SDS011;6919;52.344;14.518;2024-01-07T13:20:52;6.33;;;3.47;;
13693;SDS011;6919;52.344;14.518;2024-01-07T13:23:21;7.20;;;4.13;;
13693;SDS011;6919;52.344;14.518;2024-01-07T13:25:49;6.43;;;3.60;;
13693;SDS011;6919;52.344;14.518;2024-01-07T13:28:20;6.37;;;4.13;;
13693;SDS011;6919;52.344;14.518;2024-01-07T13:30:48;5.37;;;3.90;;
13693;SDS011;6919;52.344;14.518;2024-01-07T13:33:17;7.17;;;3.83;;
13693;SDS011;6919;52.344;14.518;2024-01-07T13:35:46;6.13;;;3.67;;
13693;SDS011;6919;52.344;14.518;2024-01-07T13:38:14;5.40;;;3.80;;
13693;SDS011;6919;52.344;14.518;2024-01-07T13:40:43;6.50;;;3.73;;
13693;SDS011;6919;52.344;14.518;2024-01-07T13:43:12;4.47;;;3.20;;
13693;SDS011;6919;52.344;14.518;2024-01-07T13:45:43;5.23;;;3.90;;
13693;SDS011;6919;52.344;14.518;2024-01-07T13:48:11;6.60;;;3.63;;
13693;SDS011;6919;52.344;14.518;2024-01-07T13:50:40;5.47;;;3.67;;
13693;SDS011;6919;52.344;14.518;2024-01-07T13:53:09;6.20;;;3.67;;
13693;SDS011;6919;52.344;14.518;2024-01-07T13:55:37;8.03;;;3.17;;
13693;SDS011;6919;52.344;14.518;2024-01-07T13:58:06;6.67;;;3.57;;
13693;SDS011;6919;52.344;14.518;2024-01-07T14:00:35;6.17;;;3.63;;
13693;SDS011;6919;52.344;14.518;2024-01-07T14:03:05;6.73;;;3.30;;
13693;SDS011;6919;52.344;14.518;2024-01-07T14:05:34;5.73;;;3.80;;
13693;SDS011;6919;52.344;14.518;2024-01-07T14:08:03;6.67;;;3.87;;
13693;SDS011;6919;52.344;14.518;2024-01-07T14:10:32;7.03;;;3.07;;
13693;SDS011;6919;52.344;14.518;2024-01-07T14:13:00;5.63;;;3.80;;
13693;SDS011;6919;52.344;14.518;2024-01-07T14:15:29;6.37;;;3.80;;
13693;SDS011;6919;52.344;14.518;2024-01-07T14:17:58;9.20;;;4.70;;
13693;SDS011;6919;52.344;14.518;2024-01-07T14:20:28;5.60;;;3.60;;
13693;SDS011;6919;52.344;14.518;2024-01-07T14:22:57;7.00;;;3.83;;
13693;SDS011;6919;52.344;14.518;2024-01-07T14:25:25;6.67;;;4.00;;
13693;SDS011;6919;52.344;14.518;2024-01-07T14:27:54;7.80;;;4.03;;
13693;SDS011;6919;52.344;14.518;2024-01-07T14:30:23;4.60;;;3.40;;
13693;SDS011;6919;52.344;14.518;2024-01-07T14:32:51;6.00;;;3.80;;
13693;SDS011;6919;52.344;14.518;2024-01-07T14:35:20;8.27;;;4.10;;
13693;SDS011;6919;52.344;14.518;2024-01-07T14:37:52;6.07;;;3.77;;
13693;SDS011;6919;52.344;14.518;2024-01-07T14:40:20;5.10;;;3.90;;
13693;SDS011;6919;52.344;14.518;2024-01-07T14:42:49;8.10;;;4.53;;
13693;SDS011;6919;52.344;14.518;2024-01-07T14:45:21;6.23;;;4.10;;
13693;SDS011;6919;52.344;14.518;2024-01-07T14:47:49;6.53;;;4.40;;
13693;SDS011;6919;52.344;14.518;2024-01-07T14:50:18;6.77;;;4.43;;
13693;SDS011;6919;52.344;14.518;2024-01-07T14:53:00;6.27;;;4.00;;
13693;SDS011;6919;52.344;14.518;2024-01-07T14:55:29;6.90;;;4.77;;
13693;SDS011;6919;52.344;14.518;2024-01-07T14:57:57;6.90;;;5.43;;
13693;SDS011;6919;52.344;14.518;2024-01-07T15:00:27;7.50;;;4.87;;
13693;SDS011;6919;52.344;14.518;2024-01-07T15:02:56;5.83;;;4.43;;
13693;SDS011;6919;52.344;14.518;2024-01-07T15:05:24;8.20;;;4.17;;